Time;durP1;ratioP1;P1;durP2;ratioP2;P2;SDS_P1;SDS_P2;PMS_P1;PMS_P2;Temp;Humidity;BMP_temperature;BMP_pressure;BME280_temperature;BME280_humidity;BME280_pressure;Samples;Min_cycle;Max_cycle;Signal;HPM_P1;HPM_P2
2021/06/12 00:01:45;;;;;;;24.48;9.88;;;;;;;;;;5012368;28;20030;-65
2021/06/12 00:04:11;;;;;;;21.23;8.77;;;;;;;;;;5010909;28;20489;-66
2021/06/12 00:06:37;;;;;;;21.27;8.07;;;;;;;;;;5012556;28;20064;-66
2021/06/12 00:09:05;;;;;;;26.50;9.68;;;;;;;;;;5012624;28;20026;-66
2021/06/12 00:11:31;;;;;;;22.10;9.13;;;;;;;;;;5012077;28;20501;-66
2021/06/12 00:13:56;;;;;;;23.40;9.23;;;;;;;;;;5012964;28;20018;-65
2021/06/12 00:16:22;;;;;;;23.38;9.35;;;;;;;;;;5012175;28;20022;-65
2021/06/12 00:18:48;;;;;;;19.33;8.07;;;;;;;;;;5012596;28;20030;-66
2021/06/12 00:21:14;;;;;;;21.02;8.73;;;;;;;;;;5011782;28;20105;-65
2021/06/12 00:23:40;;;;;;;25.17;8.55;;;;;;;;;;5011873;28;20088;-66
2021/06/12 00:26:06;;;;;;;15.95;7.50;;;;;;;;;;5005910;28;20110;-66
2021/06/12 00:28:32;;;;;;;19.13;6.80;;;;;;;;;;5014998;28;20030;-65
2021/06/12 00:30:58;;;;;;;20.35;7.13;;;;;;;;;;5012279;28;20446;-66
2021/06/12 00:33:24;;;;;;;17.60;6.53;;;;;;;;;;5011060;28;20030;-65
2021/06/12 00:35:50;;;;;;;22.17;7.35;;;;;;;;;;5010834;28;20041;-65
2021/06/12 00:38:16;;;;;;;16.27;6.82;;;;;;;;;;5010270;28;20030;-65
2021/06/12 00:40:42;;;;;;;18.67;6.82;;;;;;;;;;5011808;28;20022;-66
2021/06/12 00:43:08;;;;;;;15.50;7.13;;;;;;;;;;5011937;28;20503;-65
2021/06/12 00:45:34;;;;;;;19.45;7.53;;;;;;;;;;5008360;28;20109;-65
2021/06/12 00:48:01;;;;;;;20.98;6.50;;;;;;;;;;5005258;28;20022;-66
2021/06/12 00:50:30;;;;;;;16.77;6.57;;;;;;;;;;5011024;28;20021;-66
2021/06/12 00:52:56;;;;;;;15.63;6.40;;;;;;;;;;5006563;28;20471;-65
2021/06/12 00:55:22;;;;;;;22.83;7.18;;;;;;;;;;5004525;28;20032;-66
2021/06/12 00:57:49;;;;;;;16.15;6.38;;;;;;;;;;5007794;28;20133;-67
2021/06/12 01:00:16;;;;;;;13.15;5.97;;;;;;;;;;5016676;28;20152;-65
2021/06/12 01:02:43;;;;;;;18.55;6.38;;;;;;;;;;5015221;28;20618;-66
2021/06/12 01:05:09;;;;;;;17.75;6.35;;;;;;;;;;5006234;28;20105;-65
2021/06/12 01:07:36;;;;;;;15.60;6.63;;;;;;;;;;5015662;28;20018;-65
2021/06/12 01:10:02;;;;;;;13.43;6.10;;;;;;;;;;5011112;28;20037;-65
2021/06/12 01:12:47;;;;;;;16.10;6.45;;;;;;;;;;5008963;28;20364;-65
2021/06/12 01:15:13;;;;;;;13.15;6.10;;;;;;;;;;5023042;28;20030;-65
2021/06/12 01:17:59;;;;;;;22.10;8.35;;;;;;;;;;5008051;28;20288;-65
2021/06/12 01:20:40;;;;;;;16.65;6.95;;;;;;;;;;5006656;28;20546;-65
2021/06/12 01:23:21;;;;;;;21.75;7.22;;;;;;;;;;5006196;28;20060;-66
2021/06/12 01:25:55;;;;;;;18.15;7.63;;;;;;;;;;5020959;28;20025;-66
2021/06/12 01:28:39;;;;;;;18.02;7.70;;;;;;;;;;5007718;28;20414;-66
2021/06/12 01:31:05;;;;;;;17.45;7.88;;;;;;;;;;5014820;28;20193;-66
2021/06/12 01:33:32;;;;;;;17.88;8.02;;;;;;;;;;5003539;28;20492;-66
2021/06/12 01:36:06;;;;;;;20.35;7.70;;;;;;;;;;5018394;28;20061;-66
2021/06/12 01:38:33;;;;;;;17.08;7.07;;;;;;;;;;5019673;28;20550;-66
2021/06/12 01:41:04;;;;;;;17.38;7.47;;;;;;;;;;5012202;28;20471;-66
2021/06/12 01:43:31;;;;;;;15.35;7.85;;;;;;;;;;5020912;28;20053;-66
2021/06/12 01:45:57;;;;;;;18.13;7.50;;;;;;;;;;5010540;28;20546;-66
2021/06/12 01:48:24;;;;;;;15.68;6.93;;;;;;;;;;5009764;28;20488;-66
2021/06/12 01:50:50;;;;;;;16.02;7.13;;;;;;;;;;5008883;28;20109;-65
2021/06/12 01:53:21;;;;;;;13.38;6.85;;;;;;;;;;5012095;28;20597;-67
2021/06/12 01:55:48;;;;;;;16.70;6.90;;;;;;;;;;5010495;28;20498;-66
2021/06/12 01:58:20;;;;;;;15.10;7.30;;;;;;;;;;5010618;28;20489;-66
2021/06/12 02:00:46;;;;;;;13.00;6.72;;;;;;;;;;5010397;28;20030;-66
2021/06/12 02:03:13;;;;;;;13.60;6.88;;;;;;;;;;5008488;28;20034;-66
2021/06/12 02:05:40;;;;;;;15.20;6.65;;;;;;;;;;5010346;28;20466;-66
2021/06/12 02:08:07;;;;;;;16.58;7.07;;;;;;;;;;5008343;28;20033;-66
2021/06/12 02:10:33;;;;;;;16.15;7.32;;;;;;;;;;5005846;28;20028;-66
2021/06/12 02:12:59;;;;;;;14.25;7.13;;;;;;;;;;5012280;28;20144;-67
2021/06/12 02:15:26;;;;;;;17.98;7.03;;;;;;;;;;5008727;28;20030;-67
2021/06/12 02:17:53;;;;;;;25.52;8.98;;;;;;;;;;5009764;28;20045;-66
2021/06/12 02:20:19;;;;;;;16.58;7.32;;;;;;;;;;5008939;28;20112;-66
2021/06/12 02:22:46;;;;;;;19.10;7.95;;;;;;;;;;5008130;28;20030;-66
2021/06/12 02:25:13;;;;;;;16.73;8.23;;;;;;;;;;5008818;28;20022;-67
2021/06/12 02:27:41;;;;;;;15.15;7.85;;;;;;;;;;5025623;28;20460;-66
2021/06/12 02:30:07;;;;;;;17.38;8.40;;;;;;;;;;5009873;28;20379;-65
2021/06/12 02:32:41;;;;;;;16.92;6.72;;;;;;;;;;5012721;28;20026;-66
2021/06/12 02:35:08;;;;;;;24.75;8.55;;;;;;;;;;5008596;28;20080;-66
2021/06/12 02:37:34;;;;;;;17.02;7.35;;;;;;;;;;5011760;28;20550;-66
2021/06/12 02:40:00;;;;;;;12.63;6.82;;;;;;;;;;5009882;28;20030;-66
2021/06/12 02:42:26;;;;;;;15.30;7.50;;;;;;;;;;5009247;28;20030;-66
2021/06/12 02:44:52;;;;;;;19.63;8.18;;;;;;;;;;5009630;28;20021;-66
2021/06/12 02:47:18;;;;;;;16.42;6.38;;;;;;;;;;5009740;28;20479;-66
2021/06/12 02:49:44;;;;;;;12.60;6.38;;;;;;;;;;5009629;28;20029;-66
2021/06/12 02:52:16;;;;;;;16.48;7.25;;;;;;;;;;5009757;28;20034;-66
2021/06/12 02:54:44;;;;;;;18.35;7.63;;;;;;;;;;5010009;28;20034;-67
2021/06/12 02:57:10;;;;;;;13.35;7.05;;;;;;;;;;5010103;28;20391;-66
2021/06/12 02:59:37;;;;;;;12.15;6.95;;;;;;;;;;5009540;28;20026;-66
2021/06/12 03:02:03;;;;;;;10.80;6.20;;;;;;;;;;5007989;28;20022;-66
2021/06/12 03:04:30;;;;;;;13.15;6.80;;;;;;;;;;5019660;28;20152;-66
2021/06/12 03:06:57;;;;;;;15.38;7.60;;;;;;;;;;5032211;28;20037;-66
2021/06/12 03:09:24;;;;;;;12.10;6.97;;;;;;;;;;5020115;28;20026;-66
2021/06/12 03:11:51;;;;;;;14.32;7.68;;;;;;;;;;5013142;28;20014;-66
2021/06/12 03:14:17;;;;;;;18.10;7.45;;;;;;;;;;5016961;28;20030;-66
2021/06/12 03:16:45;;;;;;;16.83;8.40;;;;;;;;;;5012756;28;20026;-66
2021/06/12 03:19:13;;;;;;;13.73;7.28;;;;;;;;;;5017564;28;20025;-66
2021/06/12 03:21:39;;;;;;;15.93;7.30;;;;;;;;;;5012906;28;20030;-66
2021/06/12 03:24:06;;;;;;;12.90;7.47;;;;;;;;;;5017605;28;20362;-66
2021/06/12 03:26:32;;;;;;;15.57;8.57;;;;;;;;;;5009756;28;20105;-66
2021/06/12 03:28:58;;;;;;;14.45;7.43;;;;;;;;;;5005031;28;20018;-66
2021/06/12 03:31:24;;;;;;;12.18;6.78;;;;;;;;;;5008319;28;20457;-66
2021/06/12 03:33:51;;;;;;;14.65;7.13;;;;;;;;;;5013776;28;20026;-66
2021/06/12 03:36:18;;;;;;;12.18;7.50;;;;;;;;;;5013128;28;20029;-65
2021/06/12 03:38:44;;;;;;;16.15;7.75;;;;;;;;;;5014093;28;20036;-66
2021/06/12 03:41:10;;;;;;;13.15;7.28;;;;;;;;;;5017271;28;20502;-66
2021/06/12 03:43:37;;;;;;;15.55;7.90;;;;;;;;;;5013793;28;20037;-66
2021/06/12 03:46:04;;;;;;;15.93;7.28;;;;;;;;;;5011020;28;20022;-66
2021/06/12 03:48:30;;;;;;;15.80;7.07;;;;;;;;;;5012528;28;20024;-66
2021/06/12 03:50:57;;;;;;;13.38;6.95;;;;;;;;;;5009848;28;20061;-66
2021/06/12 03:53:29;;;;;;;14.40;7.45;;;;;;;;;;5012597;28;20120;-66
2021/06/12 03:55:56;;;;;;;8.23;6.20;;;;;;;;;;5006417;28;20028;-66
2021/06/12 03:58:22;;;;;;;12.65;7.05;;;;;;;;;;5007876;28;20030;-65
2021/06/12 04:00:48;;;;;;;11.57;6.10;;;;;;;;;;5012638;28;20075;-66
2021/06/12 04:03:14;;;;;;;12.80;6.75;;;;;;;;;;5012451;28;20487;-66
2021/06/12 04:05:39;;;;;;;16.42;7.95;;;;;;;;;;5011338;28;20456;-66
2021/06/12 04:08:06;;;;;;;13.40;7.15;;;;;;;;;;5020910;28;20138;-66
2021/06/12 04:10:31;;;;;;;16.73;7.13;;;;;;;;;;5012796;28;20022;-66
2021/06/12 04:12:57;;;;;;;13.45;6.07;;;;;;;;;;5017213;28;20395;-66
2021/06/12 04:15:23;;;;;;;10.90;6.68;;;;;;;;;;5012776;28;20042;-66
2021/06/12 04:17:58;;;;;;;15.30;6.75;;;;;;;;;;5011878;28;20029;-66
2021/06/12 04:20:24;;;;;;;13.02;7.03;;;;;;;;;;5012707;28;20037;-66
2021/06/12 04:22:50;;;;;;;12.40;6.20;;;;;;;;;;5019996;28;20057;-66
2021/06/12 04:25:16;;;;;;;12.35;6.97;;;;;;;;;;5018211;28;20064;-65
2021/06/12 04:27:42;;;;;;;12.10;5.80;;;;;;;;;;5011634;28;20026;-67
2021/06/12 04:30:08;;;;;;;18.05;6.43;;;;;;;;;;5011919;28;20041;-66
2021/06/12 04:32:34;;;;;;;9.45;5.53;;;;;;;;;;5012011;28;20030;-66
2021/06/12 04:35:00;;;;;;;13.95;6.53;;;;;;;;;;5011779;28;20097;-66
2021/06/12 04:37:26;;;;;;;13.73;5.97;;;;;;;;;;5012304;28;20080;-66
2021/06/12 04:39:52;;;;;;;12.75;6.07;;;;;;;;;;5011998;28;20384;-66
2021/06/12 04:42:18;;;;;;;11.13;5.85;;;;;;;;;;5016129;28;20572;-67
2021/06/12 04:44:44;;;;;;;14.70;6.00;;;;;;;;;;5012806;28;20121;-65
2021/06/12 04:47:10;;;;;;;11.73;5.30;;;;;;;;;;5011426;28;20060;-65
2021/06/12 04:49:36;;;;;;;15.43;6.35;;;;;;;;;;5012154;28;20022;-66
2021/06/12 04:52:02;;;;;;;11.52;5.60;;;;;;;;;;5010877;28;20040;-66
2021/06/12 04:54:28;;;;;;;13.40;6.35;;;;;;;;;;5017372;28;20034;-66
2021/06/12 04:56:53;;;;;;;15.77;5.95;;;;;;;;;;5011616;28;20033;-66
2021/06/12 04:59:19;;;;;;;13.73;5.03;;;;;;;;;;5016703;28;20022;-66
2021/06/12 05:01:45;;;;;;;10.27;5.50;;;;;;;;;;5011202;28;20079;-66
2021/06/12 05:04:11;;;;;;;13.23;5.13;;;;;;;;;;5011964;28;20026;-66
2021/06/12 05:06:37;;;;;;;19.55;5.97;;;;;;;;;;5011191;28;20026;-66
2021/06/12 05:09:03;;;;;;;17.02;5.45;;;;;;;;;;5013695;28;20029;-66
2021/06/12 05:11:29;;;;;;;10.95;5.13;;;;;;;;;;5014835;28;20034;-66
2021/06/12 05:13:55;;;;;;;13.00;5.60;;;;;;;;;;5011490;28;20152;-66
2021/06/12 05:16:22;;;;;;;21.50;5.50;;;;;;;;;;5011164;28;20172;-66
2021/06/12 05:18:48;;;;;;;13.25;4.88;;;;;;;;;;5028796;28;20028;-66
2021/06/12 05:21:14;;;;;;;14.10;4.93;;;;;;;;;;5013971;28;20052;-66
2021/06/12 05:23:40;;;;;;;10.07;4.32;;;;;;;;;;5017138;28;20032;-65
2021/06/12 05:26:06;;;;;;;9.65;4.43;;;;;;;;;;5010554;28;20026;-66
2021/06/12 05:28:32;;;;;;;13.05;3.78;;;;;;;;;;5011403;28;20026;-66
2021/06/12 05:30:58;;;;;;;8.23;3.35;;;;;;;;;;5011055;28;20084;-66
2021/06/12 05:33:25;;;;;;;8.43;3.72;;;;;;;;;;5010854;28;20030;-66
2021/06/12 05:35:51;;;;;;;9.23;2.95;;;;;;;;;;5011505;28;20486;-66
2021/06/12 05:38:18;;;;;;;7.25;3.15;;;;;;;;;;5011990;28;20026;-66
2021/06/12 05:40:45;;;;;;;7.43;3.75;;;;;;;;;;5009317;28;20064;-66
2021/06/12 05:43:11;;;;;;;10.20;2.53;;;;;;;;;;5010265;28;20022;-66
2021/06/12 05:45:37;;;;;;;6.22;1.98;;;;;;;;;;5010767;28;20026;-66
2021/06/12 05:48:03;;;;;;;8.25;2.72;;;;;;;;;;5022959;28;20040;-66
2021/06/12 05:50:29;;;;;;;12.15;2.80;;;;;;;;;;5010977;28;20037;-66
2021/06/12 05:52:55;;;;;;;6.07;2.80;;;;;;;;;;5012882;28;20129;-66
2021/06/12 05:55:22;;;;;;;4.20;2.22;;;;;;;;;;5014412;28;20512;-66
2021/06/12 05:57:47;;;;;;;8.70;2.60;;;;;;;;;;5010600;28;20026;-66
2021/06/12 06:00:14;;;;;;;5.88;2.30;;;;;;;;;;5010311;28;20087;-66
2021/06/12 06:02:40;;;;;;;4.90;2.05;;;;;;;;;;5019158;28;20505;-66
2021/06/12 06:05:06;;;;;;;7.50;2.40;;;;;;;;;;5002264;28;20022;-66
2021/06/12 06:07:32;;;;;;;7.43;2.33;;;;;;;;;;5010221;28;20026;-66
2021/06/12 06:09:58;;;;;;;6.43;2.05;;;;;;;;;;5011609;28;20026;-66
2021/06/12 06:12:24;;;;;;;6.50;2.05;;;;;;;;;;5010192;28;20029;-66
2021/06/12 06:14:50;;;;;;;6.15;2.03;;;;;;;;;;5006906;28;20030;-64
2021/06/12 06:17:16;;;;;;;6.05;2.70;;;;;;;;;;5010711;28;20515;-64
2021/06/12 06:19:42;;;;;;;7.57;2.10;;;;;;;;;;5009657;28;20101;-64
2021/06/12 06:22:08;;;;;;;3.92;1.73;;;;;;;;;;5013135;28;20060;-64
2021/06/12 06:24:34;;;;;;;4.95;1.88;;;;;;;;;;5004257;28;20025;-66
2021/06/12 06:27:00;;;;;;;7.53;1.85;;;;;;;;;;5025937;28;20037;-66
2021/06/12 06:29:26;;;;;;;7.22;2.45;;;;;;;;;;5010261;28;20026;-66
2021/06/12 06:31:52;;;;;;;8.23;2.17;;;;;;;;;;5012096;28;20022;-65
2021/06/12 06:34:18;;;;;;;8.52;1.98;;;;;;;;;;5011737;28;20029;-66
2021/06/12 06:36:44;;;;;;;7.78;2.20;;;;;;;;;;5001912;28;20013;-66
2021/06/12 06:39:10;;;;;;;9.82;2.25;;;;;;;;;;5011849;28;20482;-66
2021/06/12 06:41:36;;;;;;;4.20;1.80;;;;;;;;;;5013180;28;20030;-67
2021/06/12 06:44:02;;;;;;;5.25;1.77;;;;;;;;;;4999803;28;20077;-66
2021/06/12 06:46:28;;;;;;;5.32;2.40;;;;;;;;;;5009744;28;20380;-66
2021/06/12 06:48:54;;;;;;;8.55;2.03;;;;;;;;;;5009549;28;20014;-66
2021/06/12 06:51:20;;;;;;;5.72;1.85;;;;;;;;;;5009288;28;20069;-66
2021/06/12 06:53:46;;;;;;;4.80;1.60;;;;;;;;;;5006836;28;20511;-66
2021/06/12 06:56:12;;;;;;;9.88;1.90;;;;;;;;;;5014917;28;20029;-66
2021/06/12 06:58:38;;;;;;;7.57;2.10;;;;;;;;;;5006920;28;20113;-66
2021/06/12 07:01:04;;;;;;;5.60;2.25;;;;;;;;;;5009561;28;20411;-66
2021/06/12 07:03:30;;;;;;;5.82;2.20;;;;;;;;;;5008517;28;20022;-67
2021/06/12 07:05:56;;;;;;;7.97;2.00;;;;;;;;;;5020585;28;20079;-66
2021/06/12 07:08:22;;;;;;;8.38;1.95;;;;;;;;;;5010569;28;20025;-66
2021/06/12 07:10:52;;;;;;;7.30;1.80;;;;;;;;;;5009449;28;20092;-65
2021/06/12 07:13:18;;;;;;;7.28;1.98;;;;;;;;;;5014593;28;20060;-65
2021/06/12 07:15:44;;;;;;;6.97;1.92;;;;;;;;;;5009808;28;20037;-66
2021/06/12 07:18:10;;;;;;;5.97;2.13;;;;;;;;;;5012582;28;20080;-65
2021/06/12 07:20:36;;;;;;;9.27;2.03;;;;;;;;;;5008948;28;20395;-65
2021/06/12 07:23:02;;;;;;;12.20;2.33;;;;;;;;;;5013276;28;20053;-63
2021/06/12 07:25:28;;;;;;;6.40;2.17;;;;;;;;;;5004915;28;20073;-64
2021/06/12 07:27:54;;;;;;;5.65;1.73;;;;;;;;;;5007183;28;20028;-65
2021/06/12 07:30:21;;;;;;;10.38;2.10;;;;;;;;;;5007835;28;20050;-64
2021/06/12 07:32:47;;;;;;;6.63;2.15;;;;;;;;;;5001577;28;20038;-65
2021/06/12 07:35:13;;;;;;;9.80;2.25;;;;;;;;;;5007636;28;20030;-66
2021/06/12 07:37:39;;;;;;;9.25;2.13;;;;;;;;;;5004892;28;20342;-64
2021/06/12 07:40:06;;;;;;;9.07;2.55;;;;;;;;;;5007407;28;20032;-64
2021/06/12 07:42:32;;;;;;;8.95;2.38;;;;;;;;;;5016703;28;20026;-65
2021/06/12 07:44:58;;;;;;;8.82;2.53;;;;;;;;;;5016376;28;20025;-65
2021/06/12 07:47:24;;;;;;;7.22;2.28;;;;;;;;;;5019699;28;20026;-65
2021/06/12 07:49:50;;;;;;;8.35;1.77;;;;;;;;;;5023312;28;20035;-64
2021/06/12 07:52:16;;;;;;;10.30;2.13;;;;;;;;;;5005881;28;20030;-65
2021/06/12 07:54:42;;;;;;;7.55;2.40;;;;;;;;;;5006151;28;20049;-65
2021/06/12 07:57:08;;;;;;;8.10;2.47;;;;;;;;;;4997987;28;20030;-65
2021/06/12 07:59:34;;;;;;;8.02;1.77;;;;;;;;;;5001198;28;20080;-66
2021/06/12 08:02:00;;;;;;;9.68;2.72;;;;;;;;;;5001109;28;20026;-66
2021/06/12 08:04:26;;;;;;;9.63;2.17;;;;;;;;;;5000926;28;20022;-66
2021/06/12 08:06:52;;;;;;;7.20;1.85;;;;;;;;;;5005562;28;20053;-65
2021/06/12 08:09:19;;;;;;;9.18;1.92;;;;;;;;;;5000769;28;20298;-65
2021/06/12 08:11:45;;;;;;;10.20;1.98;;;;;;;;;;5005258;28;20082;-65
2021/06/12 08:14:11;;;;;;;8.95;2.40;;;;;;;;;;4999183;28;20105;-65
2021/06/12 08:16:37;;;;;;;6.78;1.80;;;;;;;;;;4995963;28;20030;-65
2021/06/12 08:19:03;;;;;;;6.38;1.63;;;;;;;;;;5029624;28;20022;-66
2021/06/12 08:21:29;;;;;;;6.53;2.35;;;;;;;;;;5025935;28;20479;-65
2021/06/12 08:23:55;;;;;;;6.72;1.95;;;;;;;;;;5030730;28;20040;-65
2021/06/12 08:26:21;;;;;;;6.85;1.83;;;;;;;;;;5025022;28;20030;-65
2021/06/12 08:28:50;;;;;;;7.68;2.03;;;;;;;;;;5030169;28;20021;-65
2021/06/12 08:31:16;;;;;;;6.20;2.33;;;;;;;;;;5030717;28;20017;-65
2021/06/12 08:33:42;;;;;;;9.10;1.85;;;;;;;;;;5023773;28;20083;-65
2021/06/12 08:36:08;;;;;;;10.35;2.35;;;;;;;;;;5026942;28;20382;-64
2021/06/12 08:38:34;;;;;;;7.22;1.98;;;;;;;;;;5029350;28;20491;-65
2021/06/12 08:41:00;;;;;;;9.07;1.90;;;;;;;;;;5023261;28;20033;-65
2021/06/12 08:43:27;;;;;;;10.85;2.05;;;;;;;;;;5030779;28;20080;-64
2021/06/12 08:45:57;;;;;;;9.02;1.67;;;;;;;;;;5034944;28;20049;-64
2021/06/12 08:48:23;;;;;;;;;;;;;;;;;;5024836;28;20620;-65
2021/06/12 08:50:49;;;;;;;7.88;2.20;;;;;;;;;;5021108;28;19925;-65
2021/06/12 08:53:16;;;;;;;6.38;1.55;;;;;;;;;;5026626;28;20025;-64
2021/06/12 08:55:43;;;;;;;10.68;2.35;;;;;;;;;;5030894;28;20029;-64
2021/06/12 08:58:09;;;;;;;9.25;1.98;;;;;;;;;;5024974;28;20025;-64
2021/06/12 09:00:35;;;;;;;5.57;1.65;;;;;;;;;;5027281;28;20029;-65
2021/06/12 09:03:04;;;;;;;13.27;1.92;;;;;;;;;;5020337;28;20033;-65
2021/06/12 09:05:49;;;;;;;5.97;1.75;;;;;;;;;;5028809;28;20144;-64
2021/06/12 09:08:16;;;;;;;7.78;2.00;;;;;;;;;;5024964;28;20028;-65
2021/06/12 09:10:50;;;;;;;10.13;1.95;;;;;;;;;;5028835;28;20025;-65
2021/06/12 09:13:17;;;;;;;7.47;1.65;;;;;;;;;;5029432;28;20030;-65
2021/06/12 09:15:51;;;;;;;5.43;1.60;;;;;;;;;;5040970;28;20031;-64
2021/06/12 09:18:34;;;;;;;9.35;2.05;;;;;;;;;;5023156;28;20033;-64
2021/06/12 09:21:00;;;;;;;6.32;1.80;;;;;;;;;;5025162;28;20393;-65
2021/06/12 09:23:26;;;;;;;4.45;1.30;;;;;;;;;;5019672;28;20029;-64
2021/06/12 09:25:52;;;;;;;8.52;2.00;;;;;;;;;;5027138;28;20025;-65
2021/06/12 09:28:18;;;;;;;7.90;1.70;;;;;;;;;;5027562;28;20122;-65
2021/06/12 09:30:44;;;;;;;5.38;1.98;;;;;;;;;;5024669;28;20029;-66
2021/06/12 09:33:10;;;;;;;8.95;1.85;;;;;;;;;;5023612;28;20257;-66
2021/06/12 09:35:42;;;;;;;6.50;1.80;;;;;;;;;;5024569;28;20033;-65
2021/06/12 09:38:29;;;;;;;7.18;1.73;;;;;;;;;;5034118;28;20044;-66
2021/06/12 09:40:55;;;;;;;8.27;1.60;;;;;;;;;;5025044;28;20044;-66
2021/06/12 09:43:31;;;;;;;11.73;2.25;;;;;;;;;;5028130;28;20034;-66
2021/06/12 09:45:59;;;;;;;8.27;1.67;;;;;;;;;;5024947;28;20028;-65
2021/06/12 09:48:25;;;;;;;9.80;2.10;;;;;;;;;;5028880;28;20025;-66
2021/06/12 09:51:10;;;;;;;12.10;2.60;;;;;;;;;;5024481;28;20018;-68
2021/06/12 09:53:47;;;;;;;6.97;2.00;;;;;;;;;;5022372;28;20032;-66
2021/06/12 09:56:13;;;;;;;8.20;1.80;;;;;;;;;;5026377;28;20032;-67
2021/06/12 09:58:39;;;;;;;11.68;2.33;;;;;;;;;;5023079;28;20033;-67
2021/06/12 10:01:10;;;;;;;9.65;2.03;;;;;;;;;;5026187;28;20033;-68
2021/06/12 10:03:36;;;;;;;9.27;1.77;;;;;;;;;;5025187;28;20052;-68
2021/06/12 10:06:11;;;;;;;8.52;2.30;;;;;;;;;;5028142;28;20124;-68
2021/06/12 10:08:37;;;;;;;8.00;2.25;;;;;;;;;;5025540;28;20537;-66
2021/06/12 10:11:03;;;;;;;12.90;2.90;;;;;;;;;;5030130;28;20031;-66
2021/06/12 10:13:30;;;;;;;7.72;1.90;;;;;;;;;;5027137;28;20065;-66
2021/06/12 10:15:57;;;;;;;8.80;2.42;;;;;;;;;;5027799;28;20049;-65
2021/06/12 10:18:25;;;;;;;5.72;1.40;;;;;;;;;;5027858;28;20029;-67
2021/06/12 10:20:52;;;;;;;7.03;1.92;;;;;;;;;;5031477;28;20453;-68
2021/06/12 10:23:18;;;;;;;7.65;2.45;;;;;;;;;;5024809;28;20503;-67
2021/06/12 10:25:44;;;;;;;8.70;1.70;;;;;;;;;;5026738;28;20026;-67
2021/06/12 10:28:10;;;;;;;13.95;2.05;;;;;;;;;;5030458;28;20484;-66
2021/06/12 10:30:37;;;;;;;9.45;1.88;;;;;;;;;;5025404;28;20049;-66
2021/06/12 10:33:04;;;;;;;11.25;2.67;;;;;;;;;;5029076;28;20057;-66
2021/06/12 10:35:30;;;;;;;5.13;1.65;;;;;;;;;;5025646;28;20817;-66
2021/06/12 10:37:57;;;;;;;8.20;2.00;;;;;;;;;;5030747;28;20411;-66
2021/06/12 10:40:36;;;;;;;5.95;1.52;;;;;;;;;;5022800;28;20748;-67
2021/06/12 10:43:08;;;;;;;8.23;2.30;;;;;;;;;;5027659;28;20025;-66
2021/06/12 10:45:34;;;;;;;8.25;1.58;;;;;;;;;;5025378;28;20086;-66
2021/06/12 10:48:01;;;;;;;8.07;2.10;;;;;;;;;;5023381;28;20025;-65
2021/06/12 10:50:26;;;;;;;9.48;1.65;;;;;;;;;;5026302;28;20049;-65
2021/06/12 10:52:53;;;;;;;7.15;1.92;;;;;;;;;;5026913;28;20472;-65
2021/06/12 10:55:38;;;;;;;6.32;1.45;;;;;;;;;;5028988;28;20057;-65
2021/06/12 10:58:24;;;;;;;8.20;1.35;;;;;;;;;;5025562;28;20021;-65
2021/06/12 11:01:09;;;;;;;5.13;1.85;;;;;;;;;;5027203;28;20037;-65
2021/06/12 11:03:48;;;;;;;5.95;1.45;;;;;;;;;;5028789;28;20024;-65
2021/06/12 11:09:12;;;;;;;9.43;1.80;;;;;;;;;;5025603;28;20025;-65
2021/06/12 11:11:39;;;;;;;6.50;1.95;;;;;;;;;;5025886;28;20033;-65
2021/06/12 11:14:24;;;;;;;8.90;1.85;;;;;;;;;;5026036;28;20044;-65
2021/06/12 11:19:42;;;;;;;9.52;1.67;;;;;;;;;;5027190;28;20035;-65
2021/06/12 11:22:23;;;;;;;9.25;1.92;;;;;;;;;;5028524;28;20025;-65
2021/06/12 11:24:51;;;;;;;7.65;1.52;;;;;;;;;;5030887;28;20029;-65
2021/06/12 11:27:23;;;;;;;7.75;1.88;;;;;;;;;;5030203;28;20052;-65
2021/06/12 11:30:08;;;;;;;6.22;1.75;;;;;;;;;;5029070;28;20786;-65
2021/06/12 11:32:34;;;;;;;10.90;1.85;;;;;;;;;;5029202;28;20029;-65
2021/06/12 11:35:00;;;;;;;6.50;1.90;;;;;;;;;;5025908;28;20033;-66
2021/06/12 11:37:28;;;;;;;7.30;1.83;;;;;;;;;;5032875;28;20045;-66
2021/06/12 11:39:56;;;;;;;6.22;1.95;;;;;;;;;;5041893;28;20021;-65
2021/06/12 11:42:22;;;;;;;7.72;1.50;;;;;;;;;;5029103;28;20027;-65
2021/06/12 11:44:48;;;;;;;5.35;1.30;;;;;;;;;;5027311;28;20017;-65
2021/06/12 11:47:25;;;;;;;7.15;1.38;;;;;;;;;;5027610;28;20025;-65
2021/06/12 11:49:51;;;;;;;7.78;1.90;;;;;;;;;;5021363;28;20104;-65
2021/06/12 11:52:17;;;;;;;5.63;1.42;;;;;;;;;;5028812;28;20056;-65
2021/06/12 11:54:43;;;;;;;7.80;1.50;;;;;;;;;;5028848;28;20502;-65
2021/06/12 11:57:09;;;;;;;5.20;1.48;;;;;;;;;;5024083;28;20029;-65
2021/06/12 11:59:35;;;;;;;5.32;1.80;;;;;;;;;;5023322;28;20018;-65
2021/06/12 12:02:06;;;;;;;6.75;1.88;;;;;;;;;;5032365;28;20452;-65
2021/06/12 12:04:34;;;;;;;7.47;1.58;;;;;;;;;;5039095;28;20024;-65
2021/06/12 12:07:00;;;;;;;7.72;2.33;;;;;;;;;;5032374;28;20025;-66
2021/06/12 12:09:34;;;;;;;8.68;2.55;;;;;;;;;;5030374;28;20030;-66
2021/06/12 12:12:01;;;;;;;6.45;1.88;;;;;;;;;;5027361;28;20026;-65
2021/06/12 12:14:31;;;;;;;6.82;1.30;;;;;;;;;;5027980;28;20026;-65
2021/06/12 12:16:57;;;;;;;10.50;1.83;;;;;;;;;;5027891;28;20076;-65
2021/06/12 12:19:24;;;;;;;6.68;1.95;;;;;;;;;;5024106;28;20457;-65
2021/06/12 12:21:51;;;;;;;6.60;1.30;;;;;;;;;;5031460;28;20030;-64
2021/06/12 12:24:17;;;;;;;5.72;1.30;;;;;;;;;;5030365;28;20018;-65
2021/06/12 12:27:05;;;;;;;6.82;1.50;;;;;;;;;;5035405;28;20033;-65
2021/06/12 12:29:32;;;;;;;7.50;1.40;;;;;;;;;;5033441;28;20056;-65
2021/06/12 12:32:00;;;;;;;9.15;1.27;;;;;;;;;;5030913;28;20017;-65
2021/06/12 12:34:37;;;;;;;7.30;1.30;;;;;;;;;;5029025;28;20505;-64
2021/06/12 12:37:04;;;;;;;9.00;2.08;;;;;;;;;;5029156;28;20049;-65
2021/06/12 12:39:40;;;;;;;9.32;1.50;;;;;;;;;;5031671;28;20116;-65
2021/06/12 12:42:07;;;;;;;12.10;2.30;;;;;;;;;;5029120;28;20072;-65
2021/06/12 12:44:33;;;;;;;7.63;1.88;;;;;;;;;;5028116;28;20029;-65
2021/06/12 12:46:59;;;;;;;11.40;1.42;;;;;;;;;;5029564;28;20045;-65
2021/06/12 12:49:30;;;;;;;6.60;1.75;;;;;;;;;;5028541;28;20037;-65
2021/06/12 12:52:00;;;;;;;4.78;1.02;;;;;;;;;;5033305;28;20465;-65
2021/06/12 12:54:27;;;;;;;9.38;1.90;;;;;;;;;;5028781;28;20025;-65
2021/06/12 12:56:58;;;;;;;8.02;1.70;;;;;;;;;;5030875;28;20034;-66
2021/06/12 12:59:25;;;;;;;7.05;2.22;;;;;;;;;;5027717;28;20566;-65
2021/06/12 13:01:52;;;;;;;7.88;1.58;;;;;;;;;;5032796;28;20029;-65
2021/06/12 13:04:28;;;;;;;6.22;1.77;;;;;;;;;;5029797;28;20017;-65
2021/06/12 13:07:13;;;;;;;5.63;1.40;;;;;;;;;;5031077;28;20021;-65
2021/06/12 13:09:40;;;;;;;7.65;1.30;;;;;;;;;;5037683;28;20104;-65
2021/06/12 13:12:27;;;;;;;7.95;1.58;;;;;;;;;;5043988;28;20197;-66
2021/06/12 13:14:59;;;;;;;10.52;1.48;;;;;;;;;;5029520;28;20562;-65
2021/06/12 13:17:26;;;;;;;9.27;2.03;;;;;;;;;;5032254;28;20036;-65
2021/06/12 13:20:01;;;;;;;5.13;1.40;;;;;;;;;;5031845;28;20028;-65
2021/06/12 13:22:35;;;;;;;7.85;1.50;;;;;;;;;;5045255;28;20112;-65
2021/06/12 13:25:09;;;;;;;5.97;1.65;;;;;;;;;;5035384;28;20028;-65
2021/06/12 13:27:37;;;;;;;6.78;1.30;;;;;;;;;;5035668;28;20053;-65
2021/06/12 13:30:05;;;;;;;7.47;1.10;;;;;;;;;;5034393;28;20034;-64
2021/06/12 13:32:31;;;;;;;4.15;1.58;;;;;;;;;;5027009;28;20136;-65
2021/06/12 13:34:57;;;;;;;7.25;1.08;;;;;;;;;;5028751;28;20059;-65
2021/06/12 13:37:24;;;;;;;3.58;1.00;;;;;;;;;;5027801;28;20834;-64
2021/06/12 13:39:55;;;;;;;6.18;1.58;;;;;;;;;;5028649;28;20033;-64
2021/06/12 13:42:21;;;;;;;7.05;1.77;;;;;;;;;;5030302;28;20454;-64
2021/06/12 13:45:05;;;;;;;7.13;1.25;;;;;;;;;;5028586;28;20022;-64
2021/06/12 13:47:31;;;;;;;5.82;1.60;;;;;;;;;;5024932;28;20025;-64
2021/06/12 13:49:59;;;;;;;5.68;1.35;;;;;;;;;;5031755;28;20029;-64
2021/06/12 13:52:25;;;;;;;6.47;1.33;;;;;;;;;;5030459;28;20069;-64
2021/06/12 13:54:50;;;;;;;9.98;2.50;;;;;;;;;;5029345;28;20107;-64
2021/06/12 13:57:20;;;;;;;6.38;1.95;;;;;;;;;;5024713;28;20038;-65
2021/06/12 13:59:46;;;;;;;7.30;1.90;;;;;;;;;;5036236;28;20080;-64
2021/06/12 14:02:12;;;;;;;8.00;2.30;;;;;;;;;;5033096;28;20359;-65
2021/06/12 14:04:39;;;;;;;10.73;1.80;;;;;;;;;;5029943;28;20056;-65
2021/06/12 14:07:06;;;;;;;5.43;1.17;;;;;;;;;;5028441;28;20053;-67
2021/06/12 14:09:32;;;;;;;9.80;2.00;;;;;;;;;;5041177;28;20082;-65
2021/06/12 14:11:58;;;;;;;7.70;1.80;;;;;;;;;;5023330;28;20117;-65
2021/06/12 14:14:24;;;;;;;7.93;1.77;;;;;;;;;;5039801;28;20120;-64
2021/06/12 14:16:50;;;;;;;6.38;1.92;;;;;;;;;;5026574;28;20032;-64
2021/06/12 14:19:16;;;;;;;7.30;1.58;;;;;;;;;;5029153;28;20010;-64
2021/06/12 14:21:41;;;;;;;9.40;1.55;;;;;;;;;;5023881;28;20479;-64
2021/06/12 14:24:11;;;;;;;6.65;2.35;;;;;;;;;;5021403;28;20021;-64
2021/06/12 14:26:37;;;;;;;12.10;1.60;;;;;;;;;;5029611;28;20048;-64
2021/06/12 14:29:03;;;;;;;10.32;1.55;;;;;;;;;;5030025;28;20479;-63
2021/06/12 14:31:30;;;;;;;6.13;1.77;;;;;;;;;;5027048;28;20049;-64
2021/06/12 14:33:56;;;;;;;6.88;1.85;;;;;;;;;;5030078;28;20452;-64
2021/06/12 14:36:22;;;;;;;8.52;1.88;;;;;;;;;;5027463;28;20033;-64
2021/06/12 14:38:48;;;;;;;7.03;1.73;;;;;;;;;;5022571;28;20030;-64
2021/06/12 14:41:14;;;;;;;8.98;1.92;;;;;;;;;;5029483;28;20112;-64
2021/06/12 14:43:40;;;;;;;8.40;2.67;;;;;;;;;;5027876;28;20140;-64
2021/06/12 14:46:07;;;;;;;15.27;2.50;;;;;;;;;;5037478;28;20479;-64
2021/06/12 14:48:35;;;;;;;7.28;2.17;;;;;;;;;;5028841;28;20154;-64